Glenwood, Canada
Current Conditions -  °F | °C
As of 12:00 AM on Sunday 21 Dec 2014 (Local Time) from CYQX Reporting Station
Overcast Overcast  
Wind Chill: 17°   Ceiling: 2000
Heat Index: 27°   Visibility: 15mi
Dew Point: 21°   Wind: 9mph
Humidity: 80%   Direction: 50°NE
Pressure: 30.26"   Gusts: NA
Location:  49°N, 54.88°W
Report Text: CYQX 210300Z 05008KT 15SM OVC020 M03/M06 A3026 RMK SC8 SLP257
Loading
Personal Weather Stations






























Interactive Weather Map New forecast layout! Learn more

10-Day Weather Forecast

Advertisements
Track Severe Weather on mobile